Ashland, VA

12:43 PM EDT on October 02, 2014 (GMT -0400)
Ashland | Change Station
CLOSE
Current Station
Personal Weather Station
Location: Ashland, VA
Elevation: 210 ft
Nearby Weather Stations

Elev 210 ft 37.75 °N, 77.48 °W | Updated 13 minutes ago

Overcast
Overcast
73.1 °F
Feels Like 74 °F
N
0.0
Wind Variable Wind from West
Gusts 2.0 mph

Today
High -- | Low -- °F
--% Chance of Precip.
Yesterday
High -- | Low -- °F
Precip. -- in
7:06 AM 6:51 PM
First Quarter, 60% visible
Pressure 30.14 in
Visibility 9.0 miles
Clouds Scattered Clouds 1100 ft
Overcast 3200 ft
Heat Index 74 °F
Dew Point 66 °F
Humidity 79%
Rainfall 0.16 in
Snow Depth Not available.
UV 5.0 out of 12
Pollen 3.50 out of 12
Ozone Good
PM2.5 Good
Flu Activity Not available.
METAR KOFP 021554Z AUTO 00000KT 9SM SCT011 OVC032 21/18 A3014 RMK AO2 SLP205 T02110178

More Conditions Fewer Conditions

Pressure 30.14 in
Visibility 9.0 miles
Clouds Scattered Clouds 1100 ft
Overcast 3200 ft
Heat Index 74 °F
Dew Point 66 °F
Humidity 79%
Rainfall 0.16 in
Snow Depth Not available.
UV 5.0 out of 12
Pollen 3.50 out of 12
Ozone Good
PM2.5 Good
Flu Activity Not available.
METAR KOFP 021554Z AUTO 00000KT 9SM SCT011 OVC032 21/18 A3014 RMK AO2 SLP205 T02110178

More Conditions Fewer Conditions

10-Day Weather Forecast

Almanac

Astronomy

Oct. 02, 2014 Rise Set
Actual Time 7:06 AM EDT 6:51 PM EDT
Civil Twilight 6:40 AM EDT 7:17 PM EDT
Nautical Twilight 6:09 AM EDT 7:47 PM EDT
Astronomical Twilight 5:39 AM EDT 8:18 PM EDT
Moon 2:50 PM EDT 12:27 AM EDT
Length of Visible Light 12h 37m
Length of Day
11h 45m
Tomorrow will be 2m 24s shorter.
First Quarter, 60% of the Moon is Illuminated
Today
First Quarter
Oct 8
Full
Oct 15
Last Quarter
Oct 23
New
Oct 30
First Quarter

Today's Extremes

State Highs State Lows

Community

WunderPhotos

Upload Photos

1,758,294 photos uploaded!

WunderBlogs® & News

Nearby

Air Quality

  Air Quality AQ Index Pollutant
Yesterday Good
PM2.5
Yesterday Good
OZONE
Current Good
PM2.5
Current Good
OZONE
Thursday Good
PM2.5

Snow Depth

Station Depth Elevation
No new snow has been reported.

Earthquake Activity

City Distance Mag. Time & Date
No recent earthquake activity has been reported nearby.
Minimum magnitude displayed is 2.5.

Coastal Water Temperatures

Place Temperature
No Stations Reporting

Nearby Weather Stations